sensor_id;sensor_type;location;lat;lon;timestamp;temperature;humidity
22827;DHT22;11580;52.562;13.418;2023-01-30T00:01:27;8.10;30.20
22827;DHT22;11580;52.562;13.418;2023-01-30T00:03:56;8.10;29.60
22827;DHT22;11580;52.562;13.418;2023-01-30T00:06:24;8.10;30.00
22827;DHT22;11580;52.562;13.418;2023-01-30T00:08:52;8.10;29.60
22827;DHT22;11580;52.562;13.418;2023-01-30T00:11:19;8.10;29.50
22827;DHT22;11580;52.562;13.418;2023-01-30T00:13:48;8.10;30.00
22827;DHT22;11580;52.562;13.418;2023-01-30T00:16:17;8.10;29.40
22827;DHT22;11580;52.562;13.418;2023-01-30T00:18:44;8.10;29.40
22827;DHT22;11580;52.562;13.418;2023-01-30T00:21:14;8.10;30.00
22827;DHT22;11580;52.562;13.418;2023-01-30T00:23:41;8.10;29.20
22827;DHT22;11580;52.562;13.418;2023-01-30T00:26:09;8.10;30.00
22827;DHT22;11580;52.562;13.418;2023-01-30T00:28:38;8.10;29.40
22827;DHT22;11580;52.562;13.418;2023-01-30T00:31:06;8.10;29.30
22827;DHT22;11580;52.562;13.418;2023-01-30T00:33:36;8.10;29.30
22827;DHT22;11580;52.562;13.418;2023-01-30T00:36:04;8.10;29.30
22827;DHT22;11580;52.562;13.418;2023-01-30T00:38:33;8.10;29.30
22827;DHT22;11580;52.562;13.418;2023-01-30T00:41:01;8.10;29.20
22827;DHT22;11580;52.562;13.418;2023-01-30T00:43:28;8.10;29.30
22827;DHT22;11580;52.562;13.418;2023-01-30T00:46:16;8.10;29.80
22827;DHT22;11580;52.562;13.418;2023-01-30T00:49:07;8.10;29.20
22827;DHT22;11580;52.562;13.418;2023-01-30T00:51:34;8.10;29.30
22827;DHT22;11580;52.562;13.418;2023-01-30T00:54:03;8.00;29.80
22827;DHT22;11580;52.562;13.418;2023-01-30T00:56:30;8.00;29.20
22827;DHT22;11580;52.562;13.418;2023-01-30T00:58:57;8.00;29.30
22827;DHT22;11580;52.562;13.418;2023-01-30T01:01:25;8.00;29.30
22827;DHT22;11580;52.562;13.418;2023-01-30T01:03:52;8.10;29.40
22827;DHT22;11580;52.562;13.418;2023-01-30T01:06:19;8.00;29.30
22827;DHT22;11580;52.562;13.418;2023-01-30T01:08:46;8.00;29.20
22827;DHT22;11580;52.562;13.418;2023-01-30T01:11:15;8.00;29.20
22827;DHT22;11580;52.562;13.418;2023-01-30T01:13:52;8.00;29.10
22827;DHT22;11580;52.562;13.418;2023-01-30T01:16:21;8.00;29.20
22827;DHT22;11580;52.562;13.418;2023-01-30T01:18:49;8.00;29.80
22827;DHT22;11580;52.562;13.418;2023-01-30T01:21:17;8.00;29.20
22827;DHT22;11580;52.562;13.418;2023-01-30T01:23:49;8.00;29.20
22827;DHT22;11580;52.562;13.418;2023-01-30T01:26:19;8.00;29.00
22827;DHT22;11580;52.562;13.418;2023-01-30T01:28:46;8.00;29.10
22827;DHT22;11580;52.562;13.418;2023-01-30T01:31:15;8.00;29.20
22827;DHT22;11580;52.562;13.418;2023-01-30T01:33:42;8.00;29.20
22827;DHT22;11580;52.562;13.418;2023-01-30T01:36:10;8.00;29.20
22827;DHT22;11580;52.562;13.418;2023-01-30T01:38:37;8.00;29.20
22827;DHT22;11580;52.562;13.418;2023-01-30T01:41:04;8.00;29.20
22827;DHT22;11580;52.562;13.418;2023-01-30T01:43:34;8.00;29.20
22827;DHT22;11580;52.562;13.418;2023-01-30T01:46:07;8.00;29.10
22827;DHT22;11580;52.562;13.418;2023-01-30T01:48:44;8.00;29.10
22827;DHT22;11580;52.562;13.418;2023-01-30T01:51:17;8.00;29.10
22827;DHT22;11580;52.562;13.418;2023-01-30T01:53:52;8.00;29.10
22827;DHT22;11580;52.562;13.418;2023-01-30T01:56:23;8.00;29.20
22827;DHT22;11580;52.562;13.418;2023-01-30T01:58:55;8.00;29.20
22827;DHT22;11580;52.562;13.418;2023-01-30T02:01:27;8.00;29.10
22827;DHT22;11580;52.562;13.418;2023-01-30T02:03:59;8.00;29.30
22827;DHT22;11580;52.562;13.418;2023-01-30T02:06:30;8.00;29.30
22827;DHT22;11580;52.562;13.418;2023-01-30T02:09:03;8.00;30.00
22827;DHT22;11580;52.562;13.418;2023-01-30T02:11:37;8.00;29.60
22827;DHT22;11580;52.562;13.418;2023-01-30T02:14:12;8.00;29.80
22827;DHT22;11580;52.562;13.418;2023-01-30T02:16:42;7.90;29.80
22827;DHT22;11580;52.562;13.418;2023-01-30T02:19:21;7.90;30.40
22827;DHT22;11580;52.562;13.418;2023-01-30T02:22:26;7.90;30.00
22827;DHT22;11580;52.562;13.418;2023-01-30T02:25:22;7.80;30.10
22827;DHT22;11580;52.562;13.418;2023-01-30T02:28:28;7.80;30.10
22827;DHT22;11580;52.562;13.418;2023-01-30T02:31:22;7.70;30.10
22827;DHT22;11580;52.562;13.418;2023-01-30T02:34:10;7.70;30.20
22827;DHT22;11580;52.562;13.418;2023-01-30T02:37:00;7.70;30.20
22827;DHT22;11580;52.562;13.418;2023-01-30T02:39:41;7.70;30.40
22827;DHT22;11580;52.562;13.418;2023-01-30T02:42:22;7.70;30.50
22827;DHT22;11580;52.562;13.418;2023-01-30T02:45:00;7.60;30.60
22827;DHT22;11580;52.562;13.418;2023-01-30T02:47:37;7.60;30.80
22827;DHT22;11580;52.562;13.418;2023-01-30T02:50:12;7.60;31.10
22827;DHT22;11580;52.562;13.418;2023-01-30T02:52:46;7.60;31.00
22827;DHT22;11580;52.562;13.418;2023-01-30T02:55:21;7.60;30.90
22827;DHT22;11580;52.562;13.418;2023-01-30T02:57:50;7.60;31.30
22827;DHT22;11580;52.562;13.418;2023-01-30T03:00:21;7.50;31.10
22827;DHT22;11580;52.562;13.418;2023-01-30T03:03:24;7.50;31.40
22827;DHT22;11580;52.562;13.418;2023-01-30T03:09:14;7.50;31.70
22827;DHT22;11580;52.562;13.418;2023-01-30T03:11:50;7.50;31.50
22827;DHT22;11580;52.562;13.418;2023-01-30T03:14:25;7.50;31.40
22827;DHT22;11580;52.562;13.418;2023-01-30T03:16:57;7.50;31.60
22827;DHT22;11580;52.562;13.418;2023-01-30T03:19:28;7.50;31.50
22827;DHT22;11580;52.562;13.418;2023-01-30T03:21:56;7.50;31.60
22827;DHT22;11580;52.562;13.418;2023-01-30T03:24:23;7.60;31.60
22827;DHT22;11580;52.562;13.418;2023-01-30T03:26:54;7.60;32.30
22827;DHT22;11580;52.562;13.418;2023-01-30T03:29:25;7.60;31.70
22827;DHT22;11580;52.562;13.418;2023-01-30T03:31:52;7.60;31.60
22827;DHT22;11580;52.562;13.418;2023-01-30T03:34:20;7.60;31.70
22827;DHT22;11580;52.562;13.418;2023-01-30T03:36:49;7.70;31.80
22827;DHT22;11580;52.562;13.418;2023-01-30T03:39:17;7.70;31.80
22827;DHT22;11580;52.562;13.418;2023-01-30T03:41:44;7.70;31.80
22827;DHT22;11580;52.562;13.418;2023-01-30T03:44:15;7.80;31.80
22827;DHT22;11580;52.562;13.418;2023-01-30T03:46:42;7.80;31.80
22827;DHT22;11580;52.562;13.418;2023-01-30T03:49:09;7.80;31.80
22827;DHT22;11580;52.562;13.418;2023-01-30T03:51:36;7.80;31.80
22827;DHT22;11580;52.562;13.418;2023-01-30T03:54:05;7.90;32.00
22827;DHT22;11580;52.562;13.418;2023-01-30T03:56:32;7.90;32.10
22827;DHT22;11580;52.562;13.418;2023-01-30T03:58:59;7.90;32.00
22827;DHT22;11580;52.562;13.418;2023-01-30T04:01:35;8.00;32.10
22827;DHT22;11580;52.562;13.418;2023-01-30T04:04:02;8.00;32.10
22827;DHT22;11580;52.562;13.418;2023-01-30T04:06:29;8.00;32.10
22827;DHT22;11580;52.562;13.418;2023-01-30T04:08:56;8.10;32.20
22827;DHT22;11580;52.562;13.418;2023-01-30T04:11:47;8.10;32.20
22827;DHT22;11580;52.562;13.418;2023-01-30T04:14:16;8.10;32.20
22827;DHT22;11580;52.562;13.418;2023-01-30T04:17:03;8.10;32.20
22827;DHT22;11580;52.562;13.418;2023-01-30T04:19:50;8.10;32.80
22827;DHT22;11580;52.562;13.418;2023-01-30T04:22:17;8.20;32.90
22827;DHT22;11580;52.562;13.418;2023-01-30T04:24:45;8.20;32.20
22827;DHT22;11580;52.562;13.418;2023-01-30T04:27:13;8.20;32.20
22827;DHT22;11580;52.562;13.418;2023-01-30T04:29:56;8.20;32.20
22827;DHT22;11580;52.562;13.418;2023-01-30T04:32:24;8.30;32.90
22827;DHT22;11580;52.562;13.418;2023-01-30T04:34:52;8.30;32.20
22827;DHT22;11580;52.562;13.418;2023-01-30T04:37:19;8.30;32.20
22827;DHT22;11580;52.562;13.418;2023-01-30T04:39:47;8.40;32.20
22827;DHT22;11580;52.562;13.418;2023-01-30T04:42:16;8.40;32.20
22827;DHT22;11580;52.562;13.418;2023-01-30T04:44:59;8.40;32.10
22827;DHT22;11580;52.562;13.418;2023-01-30T04:47:28;8.40;32.10
22827;DHT22;11580;52.562;13.418;2023-01-30T04:49:55;8.50;32.90
22827;DHT22;11580;52.562;13.418;2023-01-30T04:52:22;8.50;32.20
22827;DHT22;11580;52.562;13.418;2023-01-30T04:54:51;8.50;32.20
22827;DHT22;11580;52.562;13.418;2023-01-30T04:57:19;8.50;32.20
22827;DHT22;11580;52.562;13.418;2023-01-30T04:59:46;8.50;32.40
22827;DHT22;11580;52.562;13.418;2023-01-30T05:02:15;8.50;32.40
22827;DHT22;11580;52.562;13.418;2023-01-30T05:04:42;8.60;32.50
22827;DHT22;11580;52.562;13.418;2023-01-30T05:07:09;8.50;32.50
22827;DHT22;11580;52.562;13.418;2023-01-30T05:09:37;8.60;32.60
22827;DHT22;11580;52.562;13.418;2023-01-30T05:12:04;8.60;32.60
22827;DHT22;11580;52.562;13.418;2023-01-30T05:14:33;8.60;32.80
22827;DHT22;11580;52.562;13.418;2023-01-30T05:17:00;8.50;32.90
22827;DHT22;11580;52.562;13.418;2023-01-30T05:19:27;8.50;32.90
22827;DHT22;11580;52.562;13.418;2023-01-30T05:21:54;8.50;33.70
22827;DHT22;11580;52.562;13.418;2023-01-30T05:24:22;8.50;33.10
22827;DHT22;11580;52.562;13.418;2023-01-30T05:26:49;8.50;33.10
22827;DHT22;11580;52.562;13.418;2023-01-30T05:29:16;8.50;33.10
22827;DHT22;11580;52.562;13.418;2023-01-30T05:31:44;8.50;33.20
22827;DHT22;11580;52.562;13.418;2023-01-30T05:34:11;8.50;34.00
22827;DHT22;11580;52.562;13.418;2023-01-30T05:36:39;8.40;33.20
22827;DHT22;11580;52.562;13.418;2023-01-30T05:39:06;8.40;34.00
22827;DHT22;11580;52.562;13.418;2023-01-30T05:41:33;8.40;33.40
22827;DHT22;11580;52.562;13.418;2023-01-30T05:44:00;8.40;33.50
22827;DHT22;11580;52.562;13.418;2023-01-30T05:46:27;8.40;33.70
22827;DHT22;11580;52.562;13.418;2023-01-30T05:48:56;8.40;34.40
22827;DHT22;11580;52.562;13.418;2023-01-30T05:51:24;8.40;33.80
22827;DHT22;11580;52.562;13.418;2023-01-30T05:53:52;8.40;34.00
22827;DHT22;11580;52.562;13.418;2023-01-30T05:56:19;8.40;33.80
22827;DHT22;11580;52.562;13.418;2023-01-30T05:58:50;8.40;33.80
22827;DHT22;11580;52.562;13.418;2023-01-30T06:01:19;8.40;33.80
22827;DHT22;11580;52.562;13.418;2023-01-30T06:03:48;8.40;33.80
22827;DHT22;11580;52.562;13.418;2023-01-30T06:06:17;8.40;33.80
22827;DHT22;11580;52.562;13.418;2023-01-30T06:08:44;8.40;34.00
22827;DHT22;11580;52.562;13.418;2023-01-30T06:11:13;8.40;34.50
22827;DHT22;11580;52.562;13.418;2023-01-30T06:13:41;8.40;34.10
22827;DHT22;11580;52.562;13.418;2023-01-30T06:16:10;8.40;34.80
22827;DHT22;11580;52.562;13.418;2023-01-30T06:18:39;8.50;35.00
22827;DHT22;11580;52.562;13.418;2023-01-30T06:21:07;8.50;34.20
22827;DHT22;11580;52.562;13.418;2023-01-30T06:23:36;8.50;34.30
22827;DHT22;11580;52.562;13.418;2023-01-30T06:26:04;8.50;35.20
22827;DHT22;11580;52.562;13.418;2023-01-30T06:28:31;8.50;34.40
22827;DHT22;11580;52.562;13.418;2023-01-30T06:30:58;8.60;34.50
22827;DHT22;11580;52.562;13.418;2023-01-30T06:33:25;8.60;35.20
22827;DHT22;11580;52.562;13.418;2023-01-30T06:35:52;8.60;34.50
22827;DHT22;11580;52.562;13.418;2023-01-30T06:38:20;8.70;34.50
22827;DHT22;11580;52.562;13.418;2023-01-30T06:40:49;8.70;34.50
22827;DHT22;11580;52.562;13.418;2023-01-30T06:43:16;8.70;34.60
22827;DHT22;11580;52.562;13.418;2023-01-30T06:45:44;8.70;34.50
22827;DHT22;11580;52.562;13.418;2023-01-30T06:48:11;8.70;34.60
22827;DHT22;11580;52.562;13.418;2023-01-30T06:50:38;8.80;34.70
22827;DHT22;11580;52.562;13.418;2023-01-30T06:53:06;8.80;34.80
22827;DHT22;11580;52.562;13.418;2023-01-30T06:55:34;8.80;34.90
22827;DHT22;11580;52.562;13.418;2023-01-30T06:58:06;8.90;35.00
22827;DHT22;11580;52.562;13.418;2023-01-30T07:00:36;8.90;36.00
22827;DHT22;11580;52.562;13.418;2023-01-30T07:03:05;8.90;35.10
22827;DHT22;11580;52.562;13.418;2023-01-30T07:05:32;9.00;35.10
22827;DHT22;11580;52.562;13.418;2023-01-30T07:07:59;9.00;35.10
22827;DHT22;11580;52.562;13.418;2023-01-30T07:10:26;9.00;35.10
22827;DHT22;11580;52.562;13.418;2023-01-30T07:12:56;9.10;35.90
22827;DHT22;11580;52.562;13.418;2023-01-30T07:15:25;9.10;35.10
22827;DHT22;11580;52.562;13.418;2023-01-30T07:17:52;9.20;35.20
22827;DHT22;11580;52.562;13.418;2023-01-30T07:20:20;9.20;35.10
22827;DHT22;11580;52.562;13.418;2023-01-30T07:22:50;9.20;35.80
22827;DHT22;11580;52.562;13.418;2023-01-30T07:25:18;9.30;35.40
22827;DHT22;11580;52.562;13.418;2023-01-30T07:27:49;9.30;35.30
22827;DHT22;11580;52.562;13.418;2023-01-30T07:30:17;9.30;35.50
22827;DHT22;11580;52.562;13.418;2023-01-30T07:32:50;9.40;35.30
22827;DHT22;11580;52.562;13.418;2023-01-30T07:35:19;9.40;35.60
22827;DHT22;11580;52.562;13.418;2023-01-30T07:37:47;9.40;35.40
22827;DHT22;11580;52.562;13.418;2023-01-30T07:40:15;9.50;35.50
22827;DHT22;11580;52.562;13.418;2023-01-30T07:42:43;9.50;35.50
22827;DHT22;11580;52.562;13.418;2023-01-30T07:45:21;9.50;35.50
22827;DHT22;11580;52.562;13.418;2023-01-30T07:47:49;9.50;35.50
22827;DHT22;11580;52.562;13.418;2023-01-30T07:50:16;9.50;35.70
22827;DHT22;11580;52.562;13.418;2023-01-30T07:52:44;9.50;35.70
22827;DHT22;11580;52.562;13.418;2023-01-30T07:55:11;9.50;35.80
22827;DHT22;11580;52.562;13.418;2023-01-30T07:57:38;9.60;35.80
22827;DHT22;11580;52.562;13.418;2023-01-30T08:00:07;9.60;35.90
22827;DHT22;11580;52.562;13.418;2023-01-30T08:02:36;9.60;36.00
22827;DHT22;11580;52.562;13.418;2023-01-30T08:05:06;9.60;36.00
22827;DHT22;11580;52.562;13.418;2023-01-30T08:07:33;9.60;36.30
22827;DHT22;11580;52.562;13.418;2023-01-30T08:10:01;9.60;36.20
22827;DHT22;11580;52.562;13.418;2023-01-30T08:12:28;9.60;36.30
22827;DHT22;11580;52.562;13.418;2023-01-30T08:14:55;9.60;36.40
22827;DHT22;11580;52.562;13.418;2023-01-30T08:17:23;9.60;36.50
22827;DHT22;11580;52.562;13.418;2023-01-30T08:19:50;9.70;36.70
22827;DHT22;11580;52.562;13.418;2023-01-30T08:22:18;9.60;36.60
22827;DHT22;11580;52.562;13.418;2023-01-30T08:24:46;9.70;37.60
22827;DHT22;11580;52.562;13.418;2023-01-30T08:27:13;9.70;36.80
22827;DHT22;11580;52.562;13.418;2023-01-30T08:29:40;9.70;37.60
22827;DHT22;11580;52.562;13.418;2023-01-30T08:32:07;9.70;36.90
22827;DHT22;11580;52.562;13.418;2023-01-30T08:34:34;9.80;36.90
22827;DHT22;11580;52.562;13.418;2023-01-30T08:37:02;9.80;37.70
22827;DHT22;11580;52.562;13.418;2023-01-30T08:39:31;9.80;37.00
22827;DHT22;11580;52.562;13.418;2023-01-30T08:41:58;9.80;37.00
22827;DHT22;11580;52.562;13.418;2023-01-30T08:44:25;9.90;37.00
22827;DHT22;11580;52.562;13.418;2023-01-30T08:46:52;9.90;36.90
22827;DHT22;11580;52.562;13.418;2023-01-30T08:49:19;9.90;36.90
22827;DHT22;11580;52.562;13.418;2023-01-30T08:51:47;9.90;36.90
22827;DHT22;11580;52.562;13.418;2023-01-30T08:54:14;10.00;36.80
22827;DHT22;11580;52.562;13.418;2023-01-30T08:56:42;10.00;36.10
22827;DHT22;11580;52.562;13.418;2023-01-30T08:59:09;10.00;36.10
22827;DHT22;11580;52.562;13.418;2023-01-30T09:01:37;10.00;36.10
22827;DHT22;11580;52.562;13.418;2023-01-30T09:04:04;10.10;36.20
22827;DHT22;11580;52.562;13.418;2023-01-30T09:06:31;10.10;36.10
22827;DHT22;11580;52.562;13.418;2023-01-30T09:08:59;10.10;36.00
22827;DHT22;11580;52.562;13.418;2023-01-30T09:11:26;10.20;36.00
22827;DHT22;11580;52.562;13.418;2023-01-30T09:13:55;10.20;36.10
22827;DHT22;11580;52.562;13.418;2023-01-30T09:16:22;10.20;36.00
22827;DHT22;11580;52.562;13.418;2023-01-30T09:18:49;10.30;36.10
22827;DHT22;11580;52.562;13.418;2023-01-30T09:21:16;10.30;36.10
22827;DHT22;11580;52.562;13.418;2023-01-30T09:23:44;10.40;36.30
22827;DHT22;11580;52.562;13.418;2023-01-30T09:26:11;10.40;36.50
22827;DHT22;11580;52.562;13.418;2023-01-30T09:28:38;10.50;36.50
22827;DHT22;11580;52.562;13.418;2023-01-30T09:31:06;10.60;36.60
22827;DHT22;11580;52.562;13.418;2023-01-30T09:33:34;10.60;36.40
22827;DHT22;11580;52.562;13.418;2023-01-30T09:36:01;10.80;37.10
22827;DHT22;11580;52.562;13.418;2023-01-30T09:38:28;10.80;36.10
22827;DHT22;11580;52.562;13.418;2023-01-30T09:44:16;11.00;35.70
22827;DHT22;11580;52.562;13.418;2023-01-30T09:47:18;11.00;35.30
22827;DHT22;11580;52.562;13.418;2023-01-30T09:49:58;11.00;35.30
22827;DHT22;11580;52.562;13.418;2023-01-30T09:52:44;11.10;35.50
22827;DHT22;11580;52.562;13.418;2023-01-30T09:55:21;11.10;35.30
22827;DHT22;11580;52.562;13.418;2023-01-30T09:57:51;11.20;35.50
22827;DHT22;11580;52.562;13.418;2023-01-30T10:00:23;11.30;35.60
22827;DHT22;11580;52.562;13.418;2023-01-30T10:03:03;11.30;35.30
22827;DHT22;11580;52.562;13.418;2023-01-30T10:05:39;11.30;34.80
22827;DHT22;11580;52.562;13.418;2023-01-30T10:08:30;11.30;34.70
22827;DHT22;11580;52.562;13.418;2023-01-30T10:11:14;11.30;34.30
22827;DHT22;11580;52.562;13.418;2023-01-30T10:14:15;11.30;34.20
22827;DHT22;11580;52.562;13.418;2023-01-30T10:17:13;11.30;34.10
22827;DHT22;11580;52.562;13.418;2023-01-30T10:20:02;11.20;34.40
22827;DHT22;11580;52.562;13.418;2023-01-30T10:22:48;11.30;34.20
22827;DHT22;11580;52.562;13.418;2023-01-30T10:25:31;11.30;34.00
22827;DHT22;11580;52.562;13.418;2023-01-30T10:28:09;11.40;34.20
22827;DHT22;11580;52.562;13.418;2023-01-30T10:30:43;11.40;34.70
22827;DHT22;11580;52.562;13.418;2023-01-30T10:33:18;11.50;34.00
22827;DHT22;11580;52.562;13.418;2023-01-30T10:35:58;11.60;34.20
22827;DHT22;11580;52.562;13.418;2023-01-30T10:38:32;11.60;33.20
22827;DHT22;11580;52.562;13.418;2023-01-30T10:41:10;11.70;34.00
22827;DHT22;11580;52.562;13.418;2023-01-30T10:43:46;11.80;32.80
22827;DHT22;11580;52.562;13.418;2023-01-30T10:46:30;11.80;32.30
22827;DHT22;11580;52.562;13.418;2023-01-30T10:49:18;11.90;31.70
22827;DHT22;11580;52.562;13.418;2023-01-30T10:51:58;11.90;32.90
22827;DHT22;11580;52.562;13.418;2023-01-30T10:54:34;12.00;31.20
22827;DHT22;11580;52.562;13.418;2023-01-30T10:57:14;12.00;31.10
22827;DHT22;11580;52.562;13.418;2023-01-30T10:59:54;12.00;30.50
22827;DHT22;11580;52.562;13.418;2023-01-30T11:02:34;12.00;30.80
22827;DHT22;11580;52.562;13.418;2023-01-30T11:05:13;12.00;31.30
22827;DHT22;11580;52.562;13.418;2023-01-30T11:07:45;12.00;30.50
22827;DHT22;11580;52.562;13.418;2023-01-30T11:10:15;12.00;31.30
22827;DHT22;11580;52.562;13.418;2023-01-30T11:12:43;12.00;30.90
22827;DHT22;11580;52.562;13.418;2023-01-30T11:15:11;12.00;31.30
22827;DHT22;11580;52.562;13.418;2023-01-30T11:17:40;12.00;31.20
22827;DHT22;11580;52.562;13.418;2023-01-30T11:20:13;12.00;31.10
22827;DHT22;11580;52.562;13.418;2023-01-30T11:22:50;12.00;30.70
22827;DHT22;11580;52.562;13.418;2023-01-30T11:25:21;12.10;30.30
22827;DHT22;11580;52.562;13.418;2023-01-30T11:27:53;12.20;31.10
22827;DHT22;11580;52.562;13.418;2023-01-30T11:30:26;12.20;31.10
22827;DHT22;11580;52.562;13.418;2023-01-30T11:33:05;12.30;30.00
22827;DHT22;11580;52.562;13.418;2023-01-30T11:35:41;12.40;30.10
22827;DHT22;11580;52.562;13.418;2023-01-30T11:38:22;12.40;30.20
22827;DHT22;11580;52.562;13.418;2023-01-30T11:41:01;12.40;30.10
22827;DHT22;11580;52.562;13.418;2023-01-30T11:43:32;12.40;30.10
22827;DHT22;11580;52.562;13.418;2023-01-30T11:46:02;12.50;30.10
22827;DHT22;11580;52.562;13.418;2023-01-30T11:48:32;12.40;30.00
22827;DHT22;11580;52.562;13.418;2023-01-30T11:51:04;12.40;30.10
22827;DHT22;11580;52.562;13.418;2023-01-30T11:53:36;12.40;30.00
22827;DHT22;11580;52.562;13.418;2023-01-30T11:56:11;12.40;30.00
22827;DHT22;11580;52.562;13.418;2023-01-30T11:58:42;12.40;30.00
22827;DHT22;11580;52.562;13.418;2023-01-30T12:01:13;12.40;30.80
22827;DHT22;11580;52.562;13.418;2023-01-30T12:03:47;12.50;29.90
22827;DHT22;11580;52.562;13.418;2023-01-30T12:06:24;12.40;30.00
22827;DHT22;11580;52.562;13.418;2023-01-30T12:08:57;12.30;30.00
22827;DHT22;11580;52.562;13.418;2023-01-30T12:11:39;12.10;29.90
22827;DHT22;11580;52.562;13.418;2023-01-30T12:14:20;12.00;29.90
22827;DHT22;11580;52.562;13.418;2023-01-30T12:16:58;11.70;30.00
22827;DHT22;11580;52.562;13.418;2023-01-30T12:19:38;11.60;30.10
22827;DHT22;11580;52.562;13.418;2023-01-30T12:22:20;11.40;30.50
22827;DHT22;11580;52.562;13.418;2023-01-30T12:25:00;11.30;30.90
22827;DHT22;11580;52.562;13.418;2023-01-30T12:27:42;11.10;30.70
22827;DHT22;11580;52.562;13.418;2023-01-30T12:30:22;11.00;31.10
22827;DHT22;11580;52.562;13.418;2023-01-30T12:32:57;10.90;31.60
22827;DHT22;11580;52.562;13.418;2023-01-30T12:35:39;10.90;31.60
22827;DHT22;11580;52.562;13.418;2023-01-30T12:38:20;10.80;31.70
22827;DHT22;11580;52.562;13.418;2023-01-30T12:41:09;10.80;31.70
22827;DHT22;11580;52.562;13.418;2023-01-30T12:46:54;10.90;32.60
22827;DHT22;11580;52.562;13.418;2023-01-30T12:49:51;10.90;31.90
22827;DHT22;11580;52.562;13.418;2023-01-30T12:52:38;11.00;31.80
22827;DHT22;11580;52.562;13.418;2023-01-30T12:55:23;11.10;31.70
22827;DHT22;11580;52.562;13.418;2023-01-30T12:58:00;11.10;31.40
22827;DHT22;11580;52.562;13.418;2023-01-30T13:00:41;11.30;31.90
22827;DHT22;11580;52.562;13.418;2023-01-30T13:03:25;11.40;31.50
22827;DHT22;11580;52.562;13.418;2023-01-30T13:09:10;11.60;31.20
22827;DHT22;11580;52.562;13.418;2023-01-30T13:11:53;11.70;30.30
22827;DHT22;11580;52.562;13.418;2023-01-30T13:14:32;11.80;30.30
22827;DHT22;11580;52.562;13.418;2023-01-30T13:17:14;11.90;29.80
22827;DHT22;11580;52.562;13.418;2023-01-30T13:19:55;11.90;29.80
22827;DHT22;11580;52.562;13.418;2023-01-30T13:22:34;11.90;29.80
22827;DHT22;11580;52.562;13.418;2023-01-30T13:25:17;11.90;29.80
22827;DHT22;11580;52.562;13.418;2023-01-30T13:27:54;12.00;29.40
22827;DHT22;11580;52.562;13.418;2023-01-30T13:30:26;12.00;29.90
22827;DHT22;11580;52.562;13.418;2023-01-30T13:32:58;12.00;29.90
22827;DHT22;11580;52.562;13.418;2023-01-30T13:35:32;12.00;29.90
22827;DHT22;11580;52.562;13.418;2023-01-30T13:38:02;12.00;29.60
22827;DHT22;11580;52.562;13.418;2023-01-30T13:40:36;12.00;29.40
22827;DHT22;11580;52.562;13.418;2023-01-30T13:43:12;12.00;28.90
22827;DHT22;11580;52.562;13.418;2023-01-30T13:45:48;12.10;29.60
22827;DHT22;11580;52.562;13.418;2023-01-30T13:48:35;12.00;29.00
22827;DHT22;11580;52.562;13.418;2023-01-30T13:51:17;12.00;29.10
22827;DHT22;11580;52.562;13.418;2023-01-30T13:54:06;11.90;29.10
22827;DHT22;11580;52.562;13.418;2023-01-30T13:56:49;11.90;29.20
22827;DHT22;11580;52.562;13.418;2023-01-30T13:59:36;11.80;29.70
22827;DHT22;11580;52.562;13.418;2023-01-30T14:02:19;11.70;29.70
22827;DHT22;11580;52.562;13.418;2023-01-30T14:04:49;11.60;29.60
22827;DHT22;11580;52.562;13.418;2023-01-30T14:07:22;11.50;29.50
22827;DHT22;11580;52.562;13.418;2023-01-30T14:10:04;11.40;29.50
22827;DHT22;11580;52.562;13.418;2023-01-30T14:12:40;11.30;29.90
22827;DHT22;11580;52.562;13.418;2023-01-30T14:15:24;11.10;30.40
22827;DHT22;11580;52.562;13.418;2023-01-30T14:18:01;11.00;30.00
22827;DHT22;11580;52.562;13.418;2023-01-30T14:20:33;10.90;30.10
22827;DHT22;11580;52.562;13.418;2023-01-30T14:23:04;10.80;30.10
22827;DHT22;11580;52.562;13.418;2023-01-30T14:25:47;10.70;30.20
22827;DHT22;11580;52.562;13.418;2023-01-30T14:28:49;10.60;30.50
22827;DHT22;11580;52.562;13.418;2023-01-30T14:31:49;10.50;30.60
22827;DHT22;11580;52.562;13.418;2023-01-30T14:34:39;10.40;30.80
22827;DHT22;11580;52.562;13.418;2023-01-30T14:40:45;10.30;31.30
22827;DHT22;11580;52.562;13.418;2023-01-30T14:43:34;10.30;31.60
22827;DHT22;11580;52.562;13.418;2023-01-30T14:46:04;10.20;31.80
22827;DHT22;11580;52.562;13.418;2023-01-30T14:48:37;10.20;31.80
22827;DHT22;11580;52.562;13.418;2023-01-30T14:51:20;10.20;31.80
22827;DHT22;11580;52.562;13.418;2023-01-30T14:53:54;10.20;31.80
22827;DHT22;11580;52.562;13.418;2023-01-30T14:56:41;10.20;31.70
22827;DHT22;11580;52.562;13.418;2023-01-30T14:59:21;10.20;31.70
22827;DHT22;11580;52.562;13.418;2023-01-30T15:01:55;10.20;31.80
22827;DHT22;11580;52.562;13.418;2023-01-30T15:04:26;10.20;31.80
22827;DHT22;11580;52.562;13.418;2023-01-30T15:07:00;10.10;31.80
22827;DHT22;11580;52.562;13.418;2023-01-30T15:09:36;10.10;31.80
22827;DHT22;11580;52.562;13.418;2023-01-30T15:12:20;10.10;32.40
22827;DHT22;11580;52.562;13.418;2023-01-30T15:15:10;10.10;31.90
22827;DHT22;11580;52.562;13.418;2023-01-30T15:17:57;10.10;31.90
22827;DHT22;11580;52.562;13.418;2023-01-30T15:20:42;9.90;32.70
22827;DHT22;11580;52.562;13.418;2023-01-30T15:23:38;10.00;31.80
22827;DHT22;11580;52.562;13.418;2023-01-30T15:26:27;9.90;32.50
22827;DHT22;11580;52.562;13.418;2023-01-30T15:29:23;9.90;32.60
22827;DHT22;11580;52.562;13.418;2023-01-30T15:32:01;9.80;32.70
22827;DHT22;11580;52.562;13.418;2023-01-30T15:34:48;9.70;32.70
22827;DHT22;11580;52.562;13.418;2023-01-30T15:37:34;9.70;32.80
22827;DHT22;11580;52.562;13.418;2023-01-30T15:40:17;9.60;33.60
22827;DHT22;11580;52.562;13.418;2023-01-30T15:42:47;9.60;33.10
22827;DHT22;11580;52.562;13.418;2023-01-30T15:45:22;9.60;33.10
22827;DHT22;11580;52.562;13.418;2023-01-30T15:48:22;9.50;33.00
22827;DHT22;11580;52.562;13.418;2023-01-30T15:51:00;9.50;33.10
22827;DHT22;11580;52.562;13.418;2023-01-30T15:53:30;9.50;33.00
22827;DHT22;11580;52.562;13.418;2023-01-30T15:56:06;9.50;33.20
22827;DHT22;11580;52.562;13.418;2023-01-30T15:58:38;9.40;33.20
22827;DHT22;11580;52.562;13.418;2023-01-30T16:01:09;9.40;33.10
22827;DHT22;11580;52.562;13.418;2023-01-30T16:03:41;9.40;33.70
22827;DHT22;11580;52.562;13.418;2023-01-30T16:06:21;9.30;32.90
22827;DHT22;11580;52.562;13.418;2023-01-30T16:08:58;9.30;32.90
22827;DHT22;11580;52.562;13.418;2023-01-30T16:11:39;9.20;32.90
22827;DHT22;11580;52.562;13.418;2023-01-30T16:14:11;9.20;33.80
22827;DHT22;11580;52.562;13.418;2023-01-30T16:16:41;9.10;33.90
22827;DHT22;11580;52.562;13.418;2023-01-30T16:19:20;9.10;33.60
22827;DHT22;11580;52.562;13.418;2023-01-30T16:21:55;9.10;34.40